sensor_id;sensor_type;location;lat;lon;timestamp;temperature;humidity
37380;DHT22;23252;-33.992;18.480;2023-09-07T02:15:40;12.90;99.90
37380;DHT22;23252;-33.992;18.480;2023-09-07T02:18:07;13.30;99.90
37380;DHT22;23252;-33.992;18.480;2023-09-07T02:20:33;13.20;99.90
37380;DHT22;23252;-33.992;18.480;2023-09-07T02:23:00;13.30;99.90
37380;DHT22;23252;-33.992;18.480;2023-09-07T02:25:26;13.30;99.90
37380;DHT22;23252;-33.992;18.480;2023-09-07T02:27:53;13.30;99.90
37380;DHT22;23252;-33.992;18.480;2023-09-07T02:30:20;13.20;99.90
37380;DHT22;23252;-33.992;18.480;2023-09-07T02:32:46;13.20;99.90
37380;DHT22;23252;-33.992;18.480;2023-09-07T02:35:12;13.20;99.90
37380;DHT22;23252;-33.992;18.480;2023-09-07T02:37:39;13.20;99.90
37380;DHT22;23252;-33.992;18.480;2023-09-07T02:40:06;13.10;99.90
37380;DHT22;23252;-33.992;18.480;2023-09-07T02:42:33;13.20;99.90
37380;DHT22;23252;-33.992;18.480;2023-09-07T02:45:00;13.20;99.90
37380;DHT22;23252;-33.992;18.480;2023-09-07T02:47:26;13.20;99.90
37380;DHT22;23252;-33.992;18.480;2023-09-07T02:49:53;13.20;99.90
37380;DHT22;23252;-33.992;18.480;2023-09-07T02:52:19;13.20;99.90
37380;DHT22;23252;-33.992;18.480;2023-09-07T02:54:46;13.20;99.90
37380;DHT22;23252;-33.992;18.480;2023-09-07T02:57:12;13.20;99.90
37380;DHT22;23252;-33.992;18.480;2023-09-07T02:59:38;13.20;99.90
37380;DHT22;23252;-33.992;18.480;2023-09-07T03:02:05;13.20;99.90
37380;DHT22;23252;-33.992;18.480;2023-09-07T03:04:32;13.10;99.90
37380;DHT22;23252;-33.992;18.480;2023-09-07T03:07:01;13.20;99.90
37380;DHT22;23252;-33.992;18.480;2023-09-07T03:09:27;13.20;99.90
37380;DHT22;23252;-33.992;18.480;2023-09-07T03:11:54;13.20;99.90
37380;DHT22;23252;-33.992;18.480;2023-09-07T03:14:20;13.20;99.90
37380;DHT22;23252;-33.992;18.480;2023-09-07T03:16:47;13.20;99.90
37380;DHT22;23252;-33.992;18.480;2023-09-07T03:19:16;13.20;99.90
37380;DHT22;23252;-33.992;18.480;2023-09-07T03:21:42;13.20;99.90
37380;DHT22;23252;-33.992;18.480;2023-09-07T03:24:09;13.20;99.90
37380;DHT22;23252;-33.992;18.480;2023-09-07T03:26:35;13.30;99.90
37380;DHT22;23252;-33.992;18.480;2023-09-07T03:29:01;13.20;99.90
37380;DHT22;23252;-33.992;18.480;2023-09-07T03:31:29;13.20;99.90
37380;DHT22;23252;-33.992;18.480;2023-09-07T03:33:55;13.20;99.90
37380;DHT22;23252;-33.992;18.480;2023-09-07T03:36:22;13.20;99.90
37380;DHT22;23252;-33.992;18.480;2023-09-07T03:38:49;13.20;99.90
37380;DHT22;23252;-33.992;18.480;2023-09-07T03:41:15;13.30;99.90
37380;DHT22;23252;-33.992;18.480;2023-09-07T03:43:42;13.20;99.90
37380;DHT22;23252;-33.992;18.480;2023-09-07T03:46:08;13.20;99.90
37380;DHT22;23252;-33.992;18.480;2023-09-07T03:48:34;13.20;99.90
37380;DHT22;23252;-33.992;18.480;2023-09-07T03:51:01;13.30;99.90
37380;DHT22;23252;-33.992;18.480;2023-09-07T03:53:31;13.20;99.90
37380;DHT22;23252;-33.992;18.480;2023-09-07T03:55:57;13.20;99.90
37380;DHT22;23252;-33.992;18.480;2023-09-07T03:58:24;13.10;99.90
37380;DHT22;23252;-33.992;18.480;2023-09-07T04:00:50;13.10;99.90
37380;DHT22;23252;-33.992;18.480;2023-09-07T04:03:16;13.10;99.90
37380;DHT22;23252;-33.992;18.480;2023-09-07T04:05:43;13.00;99.90
37380;DHT22;23252;-33.992;18.480;2023-09-07T04:08:09;13.00;99.90
37380;DHT22;23252;-33.992;18.480;2023-09-07T04:10:38;12.90;99.90
37380;DHT22;23252;-33.992;18.480;2023-09-07T04:13:05;12.90;99.90
37380;DHT22;23252;-33.992;18.480;2023-09-07T04:15:50;12.80;99.90
37380;DHT22;23252;-33.992;18.480;2023-09-07T04:18:17;12.80;99.90
37380;DHT22;23252;-33.992;18.480;2023-09-07T04:20:44;12.80;99.90
37380;DHT22;23252;-33.992;18.480;2023-09-07T04:23:10;12.80;99.90
37380;DHT22;23252;-33.992;18.480;2023-09-07T04:25:36;12.70;99.90
37380;DHT22;23252;-33.992;18.480;2023-09-07T04:28:05;12.70;99.90
37380;DHT22;23252;-33.992;18.480;2023-09-07T04:30:36;12.70;99.90
37380;DHT22;23252;-33.992;18.480;2023-09-07T04:33:03;12.70;99.90
37380;DHT22;23252;-33.992;18.480;2023-09-07T04:35:30;12.70;99.90
37380;DHT22;23252;-33.992;18.480;2023-09-07T04:37:57;12.70;99.90
37380;DHT22;23252;-33.992;18.480;2023-09-07T04:40:24;12.70;99.90
37380;DHT22;23252;-33.992;18.480;2023-09-07T04:42:50;12.70;99.90
37380;DHT22;23252;-33.992;18.480;2023-09-07T04:45:17;12.70;99.90
37380;DHT22;23252;-33.992;18.480;2023-09-07T04:47:44;12.70;99.90
37380;DHT22;23252;-33.992;18.480;2023-09-07T04:50:10;12.70;99.90
37380;DHT22;23252;-33.992;18.480;2023-09-07T04:52:37;12.70;99.90
37380;DHT22;23252;-33.992;18.480;2023-09-07T04:55:03;12.70;99.90
37380;DHT22;23252;-33.992;18.480;2023-09-07T04:57:31;12.70;99.90
37380;DHT22;23252;-33.992;18.480;2023-09-07T04:59:57;12.70;99.90
37380;DHT22;23252;-33.992;18.480;2023-09-07T05:02:23;12.60;99.90
37380;DHT22;23252;-33.992;18.480;2023-09-07T05:04:51;12.60;99.90
37380;DHT22;23252;-33.992;18.480;2023-09-07T05:07:17;12.70;99.90
37380;DHT22;23252;-33.992;18.480;2023-09-07T05:09:44;12.70;99.90
37380;DHT22;23252;-33.992;18.480;2023-09-07T05:12:10;12.70;99.90
37380;DHT22;23252;-33.992;18.480;2023-09-07T05:14:36;12.70;99.90
37380;DHT22;23252;-33.992;18.480;2023-09-07T05:17:06;12.70;99.90
37380;DHT22;23252;-33.992;18.480;2023-09-07T05:19:32;12.70;99.90
37380;DHT22;23252;-33.992;18.480;2023-09-07T05:22:00;12.70;99.90
37380;DHT22;23252;-33.992;18.480;2023-09-07T05:24:38;12.70;99.90
37380;DHT22;23252;-33.992;18.480;2023-09-07T05:27:04;12.70;99.90
37380;DHT22;23252;-33.992;18.480;2023-09-07T05:29:32;12.70;99.90
37380;DHT22;23252;-33.992;18.480;2023-09-07T05:31:58;12.80;99.90
37380;DHT22;23252;-33.992;18.480;2023-09-07T05:34:24;12.80;99.90
37380;DHT22;23252;-33.992;18.480;2023-09-07T05:36:51;12.80;99.90
37380;DHT22;23252;-33.992;18.480;2023-09-07T05:39:17;12.90;99.90
37380;DHT22;23252;-33.992;18.480;2023-09-07T05:41:44;12.90;99.90
37380;DHT22;23252;-33.992;18.480;2023-09-07T05:44:10;12.90;99.90
37380;DHT22;23252;-33.992;18.480;2023-09-07T05:46:36;13.00;99.90
37380;DHT22;23252;-33.992;18.480;2023-09-07T05:49:03;13.10;99.90
37380;DHT22;23252;-33.992;18.480;2023-09-07T05:51:29;13.10;99.90
37380;DHT22;23252;-33.992;18.480;2023-09-07T05:53:55;13.10;99.90
37380;DHT22;23252;-33.992;18.480;2023-09-07T05:56:22;13.10;99.90
37380;DHT22;23252;-33.992;18.480;2023-09-07T05:58:48;13.20;99.90
37380;DHT22;23252;-33.992;18.480;2023-09-07T06:01:15;13.20;99.90
37380;DHT22;23252;-33.992;18.480;2023-09-07T06:03:41;13.20;99.90
37380;DHT22;23252;-33.992;18.480;2023-09-07T06:06:08;13.30;99.90
37380;DHT22;23252;-33.992;18.480;2023-09-07T06:08:34;13.30;99.90
37380;DHT22;23252;-33.992;18.480;2023-09-07T06:11:01;13.40;99.90
37380;DHT22;23252;-33.992;18.480;2023-09-07T06:13:27;13.40;99.90
37380;DHT22;23252;-33.992;18.480;2023-09-07T06:15:54;13.50;99.90
37380;DHT22;23252;-33.992;18.480;2023-09-07T06:18:21;13.50;99.90
37380;DHT22;23252;-33.992;18.480;2023-09-07T06:20:47;13.40;99.90
37380;DHT22;23252;-33.992;18.480;2023-09-07T06:23:13;13.40;99.90
37380;DHT22;23252;-33.992;18.480;2023-09-07T06:25:40;13.40;99.90
37380;DHT22;23252;-33.992;18.480;2023-09-07T06:28:07;13.40;99.90
37380;DHT22;23252;-33.992;18.480;2023-09-07T06:30:33;13.50;99.90
37380;DHT22;23252;-33.992;18.480;2023-09-07T06:33:00;13.40;99.90
37380;DHT22;23252;-33.992;18.480;2023-09-07T06:35:26;13.50;99.90
37380;DHT22;23252;-33.992;18.480;2023-09-07T06:37:53;13.50;99.90
37380;DHT22;23252;-33.992;18.480;2023-09-07T06:40:19;13.60;99.90
37380;DHT22;23252;-33.992;18.480;2023-09-07T06:42:45;13.50;99.90
37380;DHT22;23252;-33.992;18.480;2023-09-07T06:45:12;13.60;99.90
37380;DHT22;23252;-33.992;18.480;2023-09-07T06:47:39;13.60;99.90
37380;DHT22;23252;-33.992;18.480;2023-09-07T06:50:06;13.70;99.90
37380;DHT22;23252;-33.992;18.480;2023-09-07T06:52:32;13.70;99.90
37380;DHT22;23252;-33.992;18.480;2023-09-07T06:54:59;13.70;99.90
37380;DHT22;23252;-33.992;18.480;2023-09-07T06:57:25;13.70;99.90
37380;DHT22;23252;-33.992;18.480;2023-09-07T06:59:52;13.70;99.90
37380;DHT22;23252;-33.992;18.480;2023-09-07T07:02:18;13.70;99.90
37380;DHT22;23252;-33.992;18.480;2023-09-07T07:04:44;13.80;99.90
37380;DHT22;23252;-33.992;18.480;2023-09-07T07:07:11;13.80;99.90
37380;DHT22;23252;-33.992;18.480;2023-09-07T07:09:38;13.80;99.90
37380;DHT22;23252;-33.992;18.480;2023-09-07T07:12:05;13.90;99.90
37380;DHT22;23252;-33.992;18.480;2023-09-07T07:14:31;13.90;99.90
37380;DHT22;23252;-33.992;18.480;2023-09-07T07:16:57;13.80;99.90
37380;DHT22;23252;-33.992;18.480;2023-09-07T07:19:24;13.90;99.90
37380;DHT22;23252;-33.992;18.480;2023-09-07T07:21:50;13.90;99.90
37380;DHT22;23252;-33.992;18.480;2023-09-07T07:24:17;13.90;99.90
37380;DHT22;23252;-33.992;18.480;2023-09-07T07:26:43;14.00;99.90
37380;DHT22;23252;-33.992;18.480;2023-09-07T07:29:10;14.10;99.90
37380;DHT22;23252;-33.992;18.480;2023-09-07T07:31:37;14.20;99.90
37380;DHT22;23252;-33.992;18.480;2023-09-07T07:34:03;14.40;99.90
37380;DHT22;23252;-33.992;18.480;2023-09-07T07:36:30;14.50;99.90
37380;DHT22;23252;-33.992;18.480;2023-09-07T07:38:56;14.70;99.90
37380;DHT22;23252;-33.992;18.480;2023-09-07T07:41:23;14.80;99.90
37380;DHT22;23252;-33.992;18.480;2023-09-07T07:43:49;14.90;99.90
37380;DHT22;23252;-33.992;18.480;2023-09-07T07:46:16;15.10;99.90
37380;DHT22;23252;-33.992;18.480;2023-09-07T07:48:42;15.10;99.90
37380;DHT22;23252;-33.992;18.480;2023-09-07T07:51:09;15.20;99.90
37380;DHT22;23252;-33.992;18.480;2023-09-07T07:53:35;15.30;99.90
37380;DHT22;23252;-33.992;18.480;2023-09-07T07:56:01;15.50;99.90
37380;DHT22;23252;-33.992;18.480;2023-09-07T07:58:29;15.60;99.90
37380;DHT22;23252;-33.992;18.480;2023-09-07T08:00:55;15.60;99.90
37380;DHT22;23252;-33.992;18.480;2023-09-07T08:03:24;15.60;99.90
37380;DHT22;23252;-33.992;18.480;2023-09-07T08:05:50;15.50;99.90
37380;DHT22;23252;-33.992;18.480;2023-09-07T08:08:17;15.50;99.90
37380;DHT22;23252;-33.992;18.480;2023-09-07T10:13:57;17.10;99.90
37380;DHT22;23252;-33.992;18.480;2023-09-07T10:16:24;17.20;99.90
37380;DHT22;23252;-33.992;18.480;2023-09-07T10:18:53;17.20;99.90
37380;DHT22;23252;-33.992;18.480;2023-09-07T10:21:19;17.30;99.90
37380;DHT22;23252;-33.992;18.480;2023-09-07T10:23:45;17.30;99.90
37380;DHT22;23252;-33.992;18.480;2023-09-07T10:26:16;17.40;99.90
37380;DHT22;23252;-33.992;18.480;2023-09-07T10:28:44;17.40;99.90
37380;DHT22;23252;-33.992;18.480;2023-09-07T10:31:19;17.40;99.90
37380;DHT22;23252;-33.992;18.480;2023-09-07T10:33:46;17.40;99.90
37380;DHT22;23252;-33.992;18.480;2023-09-07T10:36:27;17.40;99.90
37380;DHT22;23252;-33.992;18.480;2023-09-07T10:38:55;17.40;99.90
37380;DHT22;23252;-33.992;18.480;2023-09-07T10:41:22;17.40;99.90
37380;DHT22;23252;-33.992;18.480;2023-09-07T10:43:53;17.40;99.90
37380;DHT22;23252;-33.992;18.480;2023-09-07T10:46:21;17.40;99.90
37380;DHT22;23252;-33.992;18.480;2023-09-07T10:48:52;17.40;99.90
37380;DHT22;23252;-33.992;18.480;2023-09-07T10:51:19;17.40;99.90
37380;DHT22;23252;-33.992;18.480;2023-09-07T10:53:46;17.50;99.90
37380;DHT22;23252;-33.992;18.480;2023-09-07T10:56:12;17.50;99.90
37380;DHT22;23252;-33.992;18.480;2023-09-07T10:58:39;17.60;99.90
37380;DHT22;23252;-33.992;18.480;2023-09-07T11:01:08;17.60;99.90
37380;DHT22;23252;-33.992;18.480;2023-09-07T11:03:36;17.60;99.90
37380;DHT22;23252;-33.992;18.480;2023-09-07T11:06:12;17.70;99.90
37380;DHT22;23252;-33.992;18.480;2023-09-07T11:08:40;17.80;99.90
37380;DHT22;23252;-33.992;18.480;2023-09-07T11:11:08;17.90;99.90
37380;DHT22;23252;-33.992;18.480;2023-09-07T11:13:35;17.90;99.90
37380;DHT22;23252;-33.992;18.480;2023-09-07T11:16:01;18.00;99.90
37380;DHT22;23252;-33.992;18.480;2023-09-07T11:18:28;18.00;99.90
37380;DHT22;23252;-33.992;18.480;2023-09-07T11:20:55;18.00;99.90
37380;DHT22;23252;-33.992;18.480;2023-09-07T11:23:22;18.20;99.90
37380;DHT22;23252;-33.992;18.480;2023-09-07T11:25:50;18.40;99.90
37380;DHT22;23252;-33.992;18.480;2023-09-07T11:28:17;18.40;99.90
37380;DHT22;23252;-33.992;18.480;2023-09-07T11:30:52;18.60;99.90
37380;DHT22;23252;-33.992;18.480;2023-09-07T11:33:22;18.70;99.90
37380;DHT22;23252;-33.992;18.480;2023-09-07T11:35:48;18.90;99.90
37380;DHT22;23252;-33.992;18.480;2023-09-07T11:38:16;19.20;99.90
37380;DHT22;23252;-33.992;18.480;2023-09-07T11:40:43;19.50;99.90
37380;DHT22;23252;-33.992;18.480;2023-09-07T11:43:17;19.70;99.90
37380;DHT22;23252;-33.992;18.480;2023-09-07T11:45:47;19.70;99.90
37380;DHT22;23252;-33.992;18.480;2023-09-07T11:48:13;19.80;99.90
37380;DHT22;23252;-33.992;18.480;2023-09-07T11:50:40;19.90;99.90
37380;DHT22;23252;-33.992;18.480;2023-09-07T11:53:07;20.10;99.90
37380;DHT22;23252;-33.992;18.480;2023-09-07T11:55:34;20.50;99.90
37380;DHT22;23252;-33.992;18.480;2023-09-07T11:58:04;21.00;99.90
37380;DHT22;23252;-33.992;18.480;2023-09-07T12:00:31;21.30;99.90
37380;DHT22;23252;-33.992;18.480;2023-09-07T12:02:58;21.60;99.90
37380;DHT22;23252;-33.992;18.480;2023-09-07T12:05:24;21.70;99.90
37380;DHT22;23252;-33.992;18.480;2023-09-07T12:07:50;21.90;99.90
37380;DHT22;23252;-33.992;18.480;2023-09-07T12:10:17;21.90;99.90
37380;DHT22;23252;-33.992;18.480;2023-09-07T12:12:43;22.00;99.90
37380;DHT22;23252;-33.992;18.480;2023-09-07T12:15:10;22.20;99.90
37380;DHT22;23252;-33.992;18.480;2023-09-07T12:17:40;22.40;99.90
37380;DHT22;23252;-33.992;18.480;2023-09-07T12:20:07;22.60;99.90
37380;DHT22;23252;-33.992;18.480;2023-09-07T12:22:39;22.80;99.90
37380;DHT22;23252;-33.992;18.480;2023-09-07T12:25:07;22.80;99.90
37380;DHT22;23252;-33.992;18.480;2023-09-07T12:27:34;22.90;99.90
37380;DHT22;23252;-33.992;18.480;2023-09-07T12:30:01;22.80;99.90
37380;DHT22;23252;-33.992;18.480;2023-09-07T12:32:28;23.00;99.90
37380;DHT22;23252;-33.992;18.480;2023-09-07T12:34:55;23.40;99.90
37380;DHT22;23252;-33.992;18.480;2023-09-07T12:37:21;23.60;99.90
37380;DHT22;23252;-33.992;18.480;2023-09-07T12:39:49;23.90;99.90
37380;DHT22;23252;-33.992;18.480;2023-09-07T12:42:16;24.20;99.90
37380;DHT22;23252;-33.992;18.480;2023-09-07T12:44:44;24.30;99.90
37380;DHT22;23252;-33.992;18.480;2023-09-07T12:47:10;24.40;99.90
37380;DHT22;23252;-33.992;18.480;2023-09-07T12:49:36;23.90;99.90
37380;DHT22;23252;-33.992;18.480;2023-09-07T12:52:03;23.70;99.90
37380;DHT22;23252;-33.992;18.480;2023-09-07T12:54:35;24.00;99.90
37380;DHT22;23252;-33.992;18.480;2023-09-07T12:57:03;23.90;99.90
37380;DHT22;23252;-33.992;18.480;2023-09-07T12:59:29;24.20;99.90
37380;DHT22;23252;-33.992;18.480;2023-09-07T13:01:56;24.50;99.90
37380;DHT22;23252;-33.992;18.480;2023-09-07T13:04:22;24.80;99.90
37380;DHT22;23252;-33.992;18.480;2023-09-07T13:06:49;24.80;99.90
37380;DHT22;23252;-33.992;18.480;2023-09-07T13:09:15;24.70;99.90
37380;DHT22;23252;-33.992;18.480;2023-09-07T13:11:41;24.90;99.90
37380;DHT22;23252;-33.992;18.480;2023-09-07T13:14:08;24.70;99.90
37380;DHT22;23252;-33.992;18.480;2023-09-07T13:16:34;24.80;99.90
37380;DHT22;23252;-33.992;18.480;2023-09-07T13:19:01;25.20;99.90
37380;DHT22;23252;-33.992;18.480;2023-09-07T13:21:27;25.20;99.90
37380;DHT22;23252;-33.992;18.480;2023-09-07T13:23:54;25.20;99.90
37380;DHT22;23252;-33.992;18.480;2023-09-07T13:26:20;25.10;99.90
37380;DHT22;23252;-33.992;18.480;2023-09-07T13:28:46;25.10;99.90
37380;DHT22;23252;-33.992;18.480;2023-09-07T13:31:13;24.90;99.90
37380;DHT22;23252;-33.992;18.480;2023-09-07T13:33:39;24.80;99.90
37380;DHT22;23252;-33.992;18.480;2023-09-07T13:36:06;24.70;99.90
37380;DHT22;23252;-33.992;18.480;2023-09-07T13:38:32;24.60;99.90
37380;DHT22;23252;-33.992;18.480;2023-09-07T13:40:58;24.40;99.90
37380;DHT22;23252;-33.992;18.480;2023-09-07T13:43:25;23.90;99.90
37380;DHT22;23252;-33.992;18.480;2023-09-07T13:45:51;23.40;99.90
37380;DHT22;23252;-33.992;18.480;2023-09-07T13:48:18;23.20;99.90
37380;DHT22;23252;-33.992;18.480;2023-09-07T13:50:44;22.90;99.90
37380;DHT22;23252;-33.992;18.480;2023-09-07T13:53:11;22.60;99.90
37380;DHT22;23252;-33.992;18.480;2023-09-07T13:55:37;22.20;99.90
37380;DHT22;23252;-33.992;18.480;2023-09-07T13:58:06;21.60;99.90
37380;DHT22;23252;-33.992;18.480;2023-09-07T14:00:32;21.30;99.90
37380;DHT22;23252;-33.992;18.480;2023-09-07T14:02:59;21.10;99.90
37380;DHT22;23252;-33.992;18.480;2023-09-07T14:05:25;21.00;99.90
37380;DHT22;23252;-33.992;18.480;2023-09-07T14:07:52;20.70;99.90
37380;DHT22;23252;-33.992;18.480;2023-09-07T14:10:20;20.60;99.90
37380;DHT22;23252;-33.992;18.480;2023-09-07T14:12:47;20.40;99.90
37380;DHT22;23252;-33.992;18.480;2023-09-07T14:15:14;20.30;99.90
37380;DHT22;23252;-33.992;18.480;2023-09-07T14:17:40;20.20;99.90
37380;DHT22;23252;-33.992;18.480;2023-09-07T14:20:07;20.10;99.90
37380;DHT22;23252;-33.992;18.480;2023-09-07T14:22:34;20.10;99.90
37380;DHT22;23252;-33.992;18.480;2023-09-07T14:25:00;20.10;99.90
37380;DHT22;23252;-33.992;18.480;2023-09-07T14:27:27;20.00;99.90
37380;DHT22;23252;-33.992;18.480;2023-09-07T14:29:53;19.90;99.90
37380;DHT22;23252;-33.992;18.480;2023-09-07T14:32:20;19.90;99.90
37380;DHT22;23252;-33.992;18.480;2023-09-07T14:34:46;19.90;99.90
37380;DHT22;23252;-33.992;18.480;2023-09-07T14:37:12;19.80;99.90
37380;DHT22;23252;-33.992;18.480;2023-09-07T14:39:39;19.60;99.90
37380;DHT22;23252;-33.992;18.480;2023-09-07T14:42:11;19.50;99.90
37380;DHT22;23252;-33.992;18.480;2023-09-07T14:44:40;19.50;99.90
37380;DHT22;23252;-33.992;18.480;2023-09-07T14:47:06;19.40;99.90
37380;DHT22;23252;-33.992;18.480;2023-09-07T14:49:33;19.40;99.90
37380;DHT22;23252;-33.992;18.480;2023-09-07T14:52:00;19.30;99.90
37380;DHT22;23252;-33.992;18.480;2023-09-07T14:54:26;19.30;99.90
37380;DHT22;23252;-33.992;18.480;2023-09-07T14:56:53;19.20;99.90
37380;DHT22;23252;-33.992;18.480;2023-09-07T14:59:19;19.20;99.90
37380;DHT22;23252;-33.992;18.480;2023-09-07T15:01:45;19.20;99.90
37380;DHT22;23252;-33.992;18.480;2023-09-07T15:04:12;19.10;99.90
37380;DHT22;23252;-33.992;18.480;2023-09-07T15:06:39;19.00;99.90
37380;DHT22;23252;-33.992;18.480;2023-09-07T15:09:06;19.00;99.90
37380;DHT22;23252;-33.992;18.480;2023-09-07T15:11:32;19.10;99.90
37380;DHT22;23252;-33.992;18.480;2023-09-07T15:13:59;19.10;99.90
37380;DHT22;23252;-33.992;18.480;2023-09-07T15:16:25;19.00;99.90
37380;DHT22;23252;-33.992;18.480;2023-09-07T15:18:52;19.00;99.90
37380;DHT22;23252;-33.992;18.480;2023-09-07T15:21:19;18.90;99.90
37380;DHT22;23252;-33.992;18.480;2023-09-07T15:23:46;18.90;99.90
37380;DHT22;23252;-33.992;18.480;2023-09-07T15:26:14;18.80;99.90
37380;DHT22;23252;-33.992;18.480;2023-09-07T15:28:40;18.70;99.90
37380;DHT22;23252;-33.992;18.480;2023-09-07T15:31:07;18.60;99.90
37380;DHT22;23252;-33.992;18.480;2023-09-07T15:33:35;18.50;99.90
37380;DHT22;23252;-33.992;18.480;2023-09-07T15:36:01;18.40;99.90
37380;DHT22;23252;-33.992;18.480;2023-09-07T15:38:28;18.10;99.90
37380;DHT22;23252;-33.992;18.480;2023-09-07T15:40:55;18.00;99.90
37380;DHT22;23252;-33.992;18.480;2023-09-07T15:43:22;17.90;99.90
37380;DHT22;23252;-33.992;18.480;2023-09-07T15:45:49;17.80;99.90
37380;DHT22;23252;-33.992;18.480;2023-09-07T15:48:15;17.70;99.90
37380;DHT22;23252;-33.992;18.480;2023-09-07T15:50:42;17.60;99.90
37380;DHT22;23252;-33.992;18.480;2023-09-07T15:53:08;17.60;99.90
37380;DHT22;23252;-33.992;18.480;2023-09-07T15:55:35;17.60;99.90
37380;DHT22;23252;-33.992;18.480;2023-09-07T15:58:01;17.60;99.90
37380;DHT22;23252;-33.992;18.480;2023-09-07T16:00:28;17.50;99.90
37380;DHT22;23252;-33.992;18.480;2023-09-07T16:02:54;17.50;99.90
37380;DHT22;23252;-33.992;18.480;2023-09-07T16:05:20;17.20;99.90
37380;DHT22;23252;-33.992;18.480;2023-09-07T18:16:00;15.10;99.90
37380;DHT22;23252;-33.992;18.480;2023-09-07T18:18:27;15.10;99.90
37380;DHT22;23252;-33.992;18.480;2023-09-07T18:20:53;15.10;99.90
37380;DHT22;23252;-33.992;18.480;2023-09-07T18:23:20;15.10;99.90
37380;DHT22;23252;-33.992;18.480;2023-09-07T18:25:49;15.00;99.90
37380;DHT22;23252;-33.992;18.480;2023-09-07T18:28:16;15.00;99.90
37380;DHT22;23252;-33.992;18.480;2023-09-07T18:30:42;15.00;99.90
37380;DHT22;23252;-33.992;18.480;2023-09-07T18:33:09;14.90;99.90
37380;DHT22;23252;-33.992;18.480;2023-09-07T18:35:36;14.90;99.90
37380;DHT22;23252;-33.992;18.480;2023-09-07T18:38:02;14.90;99.90
37380;DHT22;23252;-33.992;18.480;2023-09-07T18:40:29;14.90;99.90
37380;DHT22;23252;-33.992;18.480;2023-09-07T18:42:55;14.90;99.90
37380;DHT22;23252;-33.992;18.480;2023-09-07T18:45:23;15.00;99.90
37380;DHT22;23252;-33.992;18.480;2023-09-07T18:47:50;14.90;99.90
37380;DHT22;23252;-33.992;18.480;2023-09-07T18:50:16;14.90;99.90
37380;DHT22;23252;-33.992;18.480;2023-09-07T18:52:45;14.80;99.90
37380;DHT22;23252;-33.992;18.480;2023-09-07T18:55:11;14.80;99.90
37380;DHT22;23252;-33.992;18.480;2023-09-07T18:57:37;14.80;99.90
37380;DHT22;23252;-33.992;18.480;2023-09-07T19:00:06;14.70;99.90
37380;DHT22;23252;-33.992;18.480;2023-09-07T19:02:32;14.70;99.90
37380;DHT22;23252;-33.992;18.480;2023-09-07T19:04:59;14.60;99.90
37380;DHT22;23252;-33.992;18.480;2023-09-07T19:07:25;14.50;99.90
37380;DHT22;23252;-33.992;18.480;2023-09-07T19:09:51;14.50;99.90
37380;DHT22;23252;-33.992;18.480;2023-09-07T19:12:18;14.50;99.90
37380;DHT22;23252;-33.992;18.480;2023-09-07T19:14:44;14.50;99.90
37380;DHT22;23252;-33.992;18.480;2023-09-07T19:17:11;14.40;99.90
37380;DHT22;23252;-33.992;18.480;2023-09-07T19:19:38;14.40;99.90
37380;DHT22;23252;-33.992;18.480;2023-09-07T19:22:04;14.30;99.90
37380;DHT22;23252;-33.992;18.480;2023-09-07T19:24:30;14.30;99.90
37380;DHT22;23252;-33.992;18.480;2023-09-07T19:26:57;14.20;99.90
37380;DHT22;23252;-33.992;18.480;2023-09-07T19:29:25;14.20;99.90
37380;DHT22;23252;-33.992;18.480;2023-09-07T19:31:51;14.20;99.90
37380;DHT22;23252;-33.992;18.480;2023-09-07T19:34:18;14.20;99.90
37380;DHT22;23252;-33.992;18.480;2023-09-07T19:36:45;14.20;99.90
37380;DHT22;23252;-33.992;18.480;2023-09-07T19:39:11;14.10;99.90
37380;DHT22;23252;-33.992;18.480;2023-09-07T19:41:38;14.10;99.90
37380;DHT22;23252;-33.992;18.480;2023-09-07T19:44:05;14.00;99.90
37380;DHT22;23252;-33.992;18.480;2023-09-07T19:46:33;14.00;99.90
37380;DHT22;23252;-33.992;18.480;2023-09-07T19:48:59;13.90;99.90
37380;DHT22;23252;-33.992;18.480;2023-09-07T19:51:26;13.90;99.90
37380;DHT22;23252;-33.992;18.480;2023-09-07T19:53:52;13.90;99.90
37380;DHT22;23252;-33.992;18.480;2023-09-07T19:56:20;13.90;99.90
37380;DHT22;23252;-33.992;18.480;2023-09-07T19:58:47;13.90;99.90
37380;DHT22;23252;-33.992;18.480;2023-09-07T20:01:18;13.80;99.90
37380;DHT22;23252;-33.992;18.480;2023-09-07T20:03:46;13.90;99.90
37380;DHT22;23252;-33.992;18.480;2023-09-07T20:06:14;13.80;99.90
37380;DHT22;23252;-33.992;18.480;2023-09-07T20:08:41;13.80;99.90
37380;DHT22;23252;-33.992;18.480;2023-09-07T20:11:12;13.80;99.90
37380;DHT22;23252;-33.992;18.480;2023-09-07T20:13:40;13.80;99.90
37380;DHT22;23252;-33.992;18.480;2023-09-07T20:16:07;13.70;99.90
37380;DHT22;23252;-33.992;18.480;2023-09-07T20:18:40;13.70;99.90
37380;DHT22;23252;-33.992;18.480;2023-09-07T20:21:07;13.70;99.90
37380;DHT22;23252;-33.992;18.480;2023-09-07T20:23:33;13.70;99.90
37380;DHT22;23252;-33.992;18.480;2023-09-07T20:26:01;13.70;99.90
37380;DHT22;23252;-33.992;18.480;2023-09-07T20:28:29;13.70;99.90
37380;DHT22;23252;-33.992;18.480;2023-09-07T20:30:56;13.70;99.90
37380;DHT22;23252;-33.992;18.480;2023-09-07T20:33:23;13.70;99.90
37380;DHT22;23252;-33.992;18.480;2023-09-07T20:35:49;13.70;99.90
37380;DHT22;23252;-33.992;18.480;2023-09-07T20:38:15;13.80;99.90
37380;DHT22;23252;-33.992;18.480;2023-09-07T20:40:42;13.70;99.90
37380;DHT22;23252;-33.992;18.480;2023-09-07T20:43:09;13.70;99.90
37380;DHT22;23252;-33.992;18.480;2023-09-07T20:45:41;13.80;99.90
37380;DHT22;23252;-33.992;18.480;2023-09-07T20:48:08;13.80;99.90
37380;DHT22;23252;-33.992;18.480;2023-09-07T20:50:34;13.70;99.90
37380;DHT22;23252;-33.992;18.480;2023-09-07T20:53:01;13.70;99.90
37380;DHT22;23252;-33.992;18.480;2023-09-07T20:55:27;13.70;99.90
37380;DHT22;23252;-33.992;18.480;2023-09-07T20:57:53;13.70;99.90
37380;DHT22;23252;-33.992;18.480;2023-09-07T21:00:20;13.70;99.90
37380;DHT22;23252;-33.992;18.480;2023-09-07T21:02:47;13.60;99.90
37380;DHT22;23252;-33.992;18.480;2023-09-07T21:05:13;13.50;99.90
37380;DHT22;23252;-33.992;18.480;2023-09-07T21:07:39;13.50;99.90
37380;DHT22;23252;-33.992;18.480;2023-09-07T21:10:06;13.50;99.90
37380;DHT22;23252;-33.992;18.480;2023-09-07T21:12:33;13.50;99.90
37380;DHT22;23252;-33.992;18.480;2023-09-07T21:14:59;13.50;99.90
37380;DHT22;23252;-33.992;18.480;2023-09-07T21:17:26;13.40;99.90
37380;DHT22;23252;-33.992;18.480;2023-09-07T21:19:52;13.40;99.90
37380;DHT22;23252;-33.992;18.480;2023-09-07T21:22:18;13.40;99.90
37380;DHT22;23252;-33.992;18.480;2023-09-07T21:24:45;13.40;99.90
37380;DHT22;23252;-33.992;18.480;2023-09-07T21:27:11;13.40;99.90